Flight Track Log - Related Links

Times and Time Zones

All times are in EDT time to prevent confusion due to time zone crossing. See the N55CH flight status page for this flight to view local times or setup timezone preferences in your user account.

Time Position Orientation Groundspeed Altitude Reporting Facility
EDT Latitude Longitude Course Direction KTS MPH feet Rate Location/Type
Wed 07:48:46 PM 36.2103 -79.9189 302° West 237 273 9,200  Level Atlanta Center
Wed 07:49:46 PM 36.2456 -79.9814 305° West 244 281 11,800 1,400 Climbing Atlanta Center
Wed 07:50:46 PM 36.2778 -80.0700 294° West 255 293 12,000 500 Climbing Atlanta Center
Wed 07:51:46 PM 36.3122 -80.1661 294° West 286 329 12,800 2,300 Climbing Atlanta Center
Wed 07:52:00 PM 36.4100 -80.5100 321° Northwest  Level FlightAware Approximate
Wed 07:52:46 PM 36.3567 -80.2567 301° West 296 341 16,600  Level Atlanta Center
Wed 07:53:00 PM 36.4671 -80.6008 302° West  Level FlightAware Approximate
Wed 07:53:46 PM 36.4069 -80.3319 310° West 289 333 18,700  Level Atlanta Center
Wed 07:54:00 PM 36.5166 -80.6999 302° West  Level FlightAware Approximate
Wed 07:54:46 PM 36.4572 -80.4147 307° West 289 333 20,700  Level Atlanta Center
Wed 07:55:46 PM 36.5036 -80.4978 305° West 294 338 23,100 2,200 Climbing Atlanta Center
Wed 07:56:46 PM 36.5558 -80.5783 309° West 294 338 25,100 2,000 Climbing Atlanta Center
Wed 07:57:46 PM 36.6083 -80.6614 308° West 300 345 27,100 1,900 Climbing Atlanta Center
Wed 07:58:46 PM 36.6544 -80.7447 305° West 305 351 28,900 1,150 Climbing Atlanta Center
Wed 07:59:46 PM 36.7128 -80.8303 310° West 310 357 29,400 850 Climbing Atlanta Center
Wed 08:00:46 PM 36.7631 -80.9217 304° West 323 372 30,600 1,050 Climbing Atlanta Center
Wed 08:01:46 PM 36.8175 -81.0128 307° West 323 372 31,500 700 Climbing Atlanta Center
Wed 08:02:46 PM 36.8742 -81.1067 307° West 323 372 32,000 250 Climbing Atlanta Center
Wed 08:03:46 PM 36.9306 -81.2033 306° West 328 377 32,000 692 Level Atlanta Center
Wed 08:05:48 PM 37.0478 -81.3853 309° West 341 392 34,100 1,174 Climbing Indianapolis Center
Wed 08:06:50 PM 37.1103 -81.4900 307° West 326 375 35,600 1,317 Climbing Indianapolis Center
Wed 08:07:51 PM 37.1619 -81.5772 307° West 316 364 36,800 829 Climbing Indianapolis Center
Wed 08:08:53 PM 37.2142 -81.6656 307° West 316 364 37,300 585 Climbing Indianapolis Center
Wed 08:09:54 PM 37.2681 -81.7567 307° West 325 374 38,000 634 Climbing Indianapolis Center
Wed 08:10:56 PM 37.3219 -81.8525 305° West 335 386 38,600 532 Climbing Indianapolis Center
Wed 08:11:58 PM 37.3569 -81.9606 292° West 335 386 39,100 537 Climbing Indianapolis Center
Wed 08:12:59 PM 37.4042 -82.0864 295° West 341 392 39,700 439 Climbing Indianapolis Center
Wed 08:14:01 PM 37.4475 -82.1944 297° West 345 397 40,000 146 Climbing Indianapolis Center
Wed 08:15:02 PM 37.4994 -82.3003 302° West 354 407 40,000  Level Indianapolis Center
Wed 08:16:04 PM 37.5703 -82.3958 313° West 373 429 40,000  Level Indianapolis Center
Wed 08:17:05 PM 37.6394 -82.4936 312° West 375 432 40,000  Level Indianapolis Center
Wed 08:18:07 PM 37.7072 -82.5956 310° West 381 438 40,000  Level Indianapolis Center
Wed 08:19:08 PM 37.7889 -82.7169 310° West 389 448 40,000  Level Indianapolis Center
Wed 08:20:10 PM 37.8592 -82.8189 311° West 387 445 40,000  Level Indianapolis Center
Wed 08:21:11 PM 37.9278 -82.9225 310° West 386 444 40,000  Level Indianapolis Center
Wed 08:22:13 PM 37.9978 -83.0261 311° West 386 444 40,000  Level Indianapolis Center
Wed 08:23:14 PM 38.0667 -83.1286 311° West 384 442 40,000  Level Indianapolis Center
Wed 08:24:15 PM 38.1364 -83.2328 310° West 387 445 40,000  Level Indianapolis Center
Wed 08:25:17 PM 38.2047 -83.3350 310° West 383 441 40,000  Level Indianapolis Center
Wed 08:26:19 PM 38.2853 -83.4553 310° West 383 441 40,000  Level Indianapolis Center
Wed 08:27:20 PM 38.3547 -83.5589 311° West 383 441 40,000  Level Indianapolis Center
Wed 08:28:21 PM 38.4239 -83.6639 310° West 387 445 40,000 -244 Level Indianapolis Center
Wed 08:29:23 PM 38.4925 -83.7706 309° West 389 448 39,500 -488 Descending Indianapolis Center
Wed 08:30:24 PM 38.5642 -83.8783 310° West 396 456 39,000 -634 Descending Indianapolis Center
Wed 08:31:26 PM 38.6339 -83.9856 310° West 394 453 38,200 -780 Descending Indianapolis Center
Wed 08:32:27 PM 38.7122 -84.1069 310° West 392 451 37,400 -585 Descending Indianapolis Center
Wed 08:33:29 PM 38.7831 -84.2164 310° West 395 455 37,000 -195 Descending Indianapolis Center
Wed 08:34:30 PM 38.8525 -84.3247 309° West 392 451 37,000 -244 Level Indianapolis Center
Wed 08:35:32 PM 38.9231 -84.4319 310° West 390 449 36,500 -629 Descending Indianapolis Center
Wed 08:36:34 PM 38.9914 -84.5392 309° West 385 443 35,700 -829 Descending Indianapolis Center
Wed 08:37:35 PM 39.0600 -84.6450 310° West 381 438 34,800 -829 Descending Indianapolis Center
Wed 08:38:37 PM 39.1275 -84.7506 310° West 379 436 34,000 -732 Descending Indianapolis Center
Wed 08:39:38 PM 39.1961 -84.8581 309° West 383 441 33,300 -780 Descending Indianapolis Center
Wed 08:40:40 PM 39.2714 -84.9761 309° West 391 450 32,400 -829 Descending Indianapolis Center
Wed 08:41:41 PM 39.3408 -85.0861 309° West 396 456 31,600 -732 Descending Indianapolis Center
Wed 08:42:43 PM 39.4086 -85.1956 309° West 394 453 30,900 -732 Descending Indianapolis Center
Wed 08:43:44 PM 39.4786 -85.3047 310° West 395 455 30,100 -585 Descending Indianapolis Center
Wed 08:44:46 PM 39.5481 -85.4153 309° West 396 456 29,700 -439 Descending Indianapolis Center
Wed 08:45:47 PM 39.6158 -85.5253 309° West 393 452 29,200 -488 Descending Indianapolis Center
Wed 08:46:49 PM 39.6975 -85.6564 309° West 393 452 28,700 -488 Descending Indianapolis Center
Wed 08:47:50 PM 39.7658 -85.7661 309° West 392 451 28,200 -344 Descending Indianapolis Center
Wed 08:48:51 PM 39.8331 -85.8753 309° West 391 450 28,000 -98 Descending Indianapolis Center
Wed 08:49:53 PM 39.9006 -85.9844 309° West 392 451 28,000  Level Indianapolis Center
Wed 08:50:54 PM 39.9672 -86.0933 309° West 392 451 28,000  Level Indianapolis Center
Wed 08:51:56 PM 40.0336 -86.2025 308° West 390 449 28,000  Level Indianapolis Center
Wed 08:52:57 PM 40.1128 -86.3336 308° West 388 447 28,000  Level Indianapolis Center
Wed 08:53:12 PM 40.1261 -86.3547 310° West 389 448 28,000 -468 Level Chicago Center
Wed 08:54:14 PM 40.1917 -86.4619 309° West 383 441 27,400 -629 Descending Chicago Center
Wed 08:55:16 PM 40.2544 -86.5667 308° West 372 428 26,700 -629 Descending Chicago Center
Wed 08:56:18 PM 40.3333 -86.6517 321° Northwest 371 427 26,100 -629 Descending Chicago Center
Wed 08:57:20 PM 40.4314 -86.7453 324° Northwest 368 423 25,400 -677 Descending Chicago Center
Wed 08:58:22 PM 40.5275 -86.7897 341° North 369 425 24,700 -1,210 Descending Chicago Center
Wed 08:59:24 PM 40.6225 -86.8319 341° North 364 419 22,900 -2,081 Descending Chicago Center
Wed 09:00:26 PM 40.7131 -86.8736 341° North 351 404 20,400 -2,226 Descending Chicago Center
Wed 09:01:28 PM 40.7981 -86.9139 340° North 333 383 18,300 -2,274 Descending Chicago Center
Wed 09:02:30 PM 40.8989 -86.9633 340° North 327 376 15,700 -2,371 Descending Chicago Center
Wed 09:03:32 PM 40.9811 -87.0011 341° North 318 366 13,400 -2,226 Descending Chicago Center
Wed 09:04:34 PM 41.0611 -87.0403 340° North 310 357 11,100 -2,129 Descending Chicago Center
Wed 09:05:36 PM 41.1383 -87.0761 341° North 298 343 9,000 -2,129 Descending Chicago Center
Wed 09:06:38 PM 41.2083 -87.1092 340° North 272 313 6,700 -2,274 Descending Chicago Center
Wed 09:07:40 PM 41.2844 -87.1472 339° North 246 283 4,300 -1,306 Descending Chicago Center
Wed 09:08:42 PM 41.3456 -87.1772 340° North 239 275 4,000 -145 Descending Chicago Center
Wed 09:09:44 PM 41.4089 -87.2067 341° North 241 277 4,000  Level Chicago Center
Wed 09:10:46 PM 41.4728 -87.2381 340° North 243 280 4,000 49 Level Chicago Center
Wed 09:11:47 PM 41.5500 -87.2667 345° North 249 287 4,100 -99 Climbing Chicago TRACON
Wed 09:12:47 PM 41.6167 -87.3000 340° North 250 288 3,800 -333 Descending Chicago TRACON
Wed 09:13:53 PM 41.6833 -87.3333 340° North 245 282 3,400 -333 Descending Chicago TRACON
Wed 09:14:53 PM 41.7333 -87.3667 334° Northwest 205 236 3,100 -211 Descending Chicago TRACON
Wed 09:15:47 PM 41.7833 -87.4000 334° Northwest 198 228 3,000 -50 Descending Chicago TRACON
Wed 09:16:53 PM 41.8333 -87.4167 346° North 197 227 3,000  Level Chicago TRACON
Wed 09:17:53 PM 41.8833 -87.4500 334° Northwest 196 226 3,000 50 Level Chicago TRACON
Wed 09:18:53 PM 41.9500 -87.4833 340° North 203 234 3,100 50 Climbing Chicago TRACON
Wed 09:19:54 PM 42.0000 -87.5000 346° North 207 238 3,100  Level Chicago TRACON
Wed 09:20:54 PM 42.0500 -87.5333 334° Northwest 209 241 3,100 -48 Level Chicago TRACON
Wed 09:22:00 PM 42.1167 -87.5667 340° North 212 244 3,000  Descending Chicago TRACON
Wed 09:22:54 PM 42.1500 -87.6000 323° Northwest 208 239 3,100 -86 Climbing Chicago TRACON
Wed 09:23:10 PM 42.1658 -87.6217 315° West 210 242 2,900 -77 Descending Chicago Center
Wed 09:24:12 PM 42.1886 -87.6950 293° West 211 243 3,000  Climbing Chicago Center
Wed 09:25:14 PM 42.2094 -87.7672 291° West 209 241 2,900 -341 Descending Chicago Center
Wed 09:26:15 PM 42.2108 -87.8425 271° West 207 238 2,300 -390 Descending Chicago Center
Wed 09:27:17 PM 42.2031 -87.9053 261° West 192 221 2,100 -387 Descending Chicago Center
Wed 09:28:19 PM 42.1733 -87.9317 213° Southwest 168 193 1,500 -532 Descending Chicago Center
Wed 09:29:21 PM 42.1394 -87.9175 163° South 125 144 1,000 -387 Descending Chicago Center
Wed 09:30:23 PM 42.1183 -87.9069 160° South 111 128 700 -290 Descending Chicago Center

Login

Don't have an account? Register now (free) for customized features, flight alerts, and more!